| Date | Time | Temp. (oF) | Dew Point (oF) | Rel. Hum. (%) | Press. (in.) | Wind Dir. | Wind Speed (mph) | Hourly Rainfall (in.) |
|
|---|---|---|---|---|---|---|---|---|---|
| 1 | 12/29 | 00:00 | 37 | 34 | 90 | 30.18 | SSE | 4 | 0.00 |
| 2 | 12/28 | 23:00 | 37 | 34 | 90 | 30.21 | SSE | 9 | 0.01 |
| 3 | 12/28 | 22:00 | 36 | 32 | 87 | 30.27 | SE | 7 | 0.01 |
| 4 | 12/28 | 21:00 | 37 | 31 | 80 | 30.29 | SE | 6 | 0.00 |
| 5 | 12/28 | 20:00 | 38 | 27 | 66 | 30.30 | ESE | 5 | 0.00 |
| 6 | 12/28 | 19:00 | 39 | 27 | 63 | 30.31 | SSW | 14 | 0.00 |
| 7 | 12/28 | 18:00 | 39 | 30 | 72 | 30.32 | NE | 1 | 0.00 |
| 8 | 12/28 | 17:00 | 40 | 29 | 65 | 30.31 | ESE | 3 | 0.00 |
| 9 | 12/28 | 16:00 | 40 | 28 | 62 | 30.32 | SE | 4 | 0.00 |
| 10 | 12/28 | 15:00 | 40 | 28 | 62 | 30.32 | SSE | 6 | 0.00 |
| 11 | 12/28 | 14:00 | 41 | 29 | 64 | 30.31 | ENE | 3 | 0.00 |
| 12 | 12/28 | 13:00 | 40 | 28 | 64 | 30.33 | E | 1 | 0.00 |
| 13 | 12/28 | 12:00 | 39 | 27 | 64 | 30.34 | SE | 5 | 0.00 |
| 14 | 12/28 | 11:00 | 39 | 28 | 65 | 30.34 | ENE | 6 | 0.00 |
| 15 | 12/28 | 10:00 | 38 | 26 | 64 | 30.36 | E | 9 | 0.00 |
| 16 | 12/28 | 09:00 | 38 | 28 | 67 | 30.33 | SE | 4 | 0.00 |
| 17 | 12/28 | 08:00 | 37 | 26 | 65 | 30.30 | E | 7 | 0.00 |
| 18 | 12/28 | 07:00 | 37 | 27 | 69 | 30.27 | E | 7 | 0.00 |
| 19 | 12/28 | 06:00 | 38 | 28 | 67 | 30.24 | E | 2 | 0.00 |
| 20 | 12/28 | 05:00 | 38 | 28 | 67 | 30.20 | E | 12 | 0.00 |
| 21 | 12/28 | 04:00 | 39 | 28 | 66 | 30.21 | N | 8 | 0.00 |
| 22 | 12/28 | 03:00 | 40 | 29 | 66 | 30.19 | NE | 7 | 0.00 |
| 23 | 12/28 | 02:00 | 41 | 32 | 71 | 30.14 | N | 5 | 0.00 |
| 24 | 12/28 | 01:00 | 43 | 33 | 70 | 30.11 | ESE | 10 | 0.00 |